Star Clipper — 9HA2513 — position and weather

sailwx.info

Track history (hours):
 
Tides and Currents Weather Stations Pressure Air Temp Water Temp Dewpoint Dewpoint Depression Visibility Wind Speed Wind Dir Waves Ship Positions

Star Clipper

Last reported at 2018-Dec-29 16:10 UTC. Time now 2019-Feb-16 03:00 UTC.
Position N 01°15' E 103°25'.
Warning: this ship's position is 48 days out of date.

Length 111 m; draft 5.9 m.

Type: Other ship. MMSI: 248786000.

Date/timePositionNaut miles runAvg speedWind from/ knotsBaromVisibWave heightAir tempDewpointWater temp
2018-Dec-29 16:10N 01°15' E 103°25'9 8.0
2018-Dec-29 15:04N 01°13' E 103°33'7 8.2
2018-Dec-29 14:16N 01°11' E 103°39'4 8.2
2018-Dec-29 13:46N 01°09' E 103°43'2 7.3
2018-Dec-29 13:28N 01°09' E 103°45'4 7.8
2018-Dec-29 12:58N 01°11' E 103°49'4 7.1
2018-Dec-29 12:22N 01°13' E 103°52'2 6.1
2018-Dec-29 11:58N 01°16' E 103°52'0 0.4
2018-Dec-29 11:28N 01°16' E 103°52'0 0.0
2018-Dec-29 10:58N 01°16' E 103°52'0 0.0
2018-Dec-29 10:04N 01°16' E 103°52'0 0.0
2018-Dec-29 09:52N 01°16' E 103°52'0 0.0
2018-Dec-29 09:28N 01°16' E 103°52'1 1.5
2018-Dec-29 08:58N 01°15' E 103°52'0 0.0
2018-Dec-29 08:28N 01°15' E 103°52'0 0.0
2018-Dec-29 07:58N 01°15' E 103°52'0 0.0
2018-Dec-29 07:28N 01°15' E 103°52'0 0.1
2018-Dec-29 06:58N 01°15' E 103°52'0 0.0
2018-Dec-29 06:28N 01°15' E 103°52'0 0.0
2018-Dec-29 05:59N 01°15' E 103°52'0 0.0
2018-Dec-29 05:29N 01°15' E 103°52'0 0.0
2018-Dec-29 04:59N 01°15' E 103°52'0 0.0
2018-Dec-29 04:29N 01°15' E 103°52'0 0.0
2018-Dec-29 03:53N 01°15' E 103°52'0 0.0
2018-Dec-29 03:29N 01°15' E 103°52'0 0.0
2018-Dec-29 02:29N 01°15' E 103°52'0 0.0
2018-Dec-29 01:42N 01°15' E 103°52'0 0.0
2018-Dec-29 01:23N 01°15' E 103°52'0 0.0
2018-Dec-29 00:47N 01°15' E 103°52'0 0.0
2018-Dec-29 00:29N 01°15' E 103°52'0 0.0
2018-Dec-28 23:59N 01°15' E 103°52'0 0.0
2018-Dec-28 23:29N 01°15' E 103°52'1 0.6
2018-Dec-28 22:11N 01°16' E 103°52'0 0.0
2018-Dec-28 21:53N 01°16' E 103°52'0 0.0
2018-Dec-28 21:23N 01°16' E 103°52'0 0.1
2018-Dec-28 20:35N 01°16' E 103°52'0 3.3
2018-Dec-28 20:29N 01°15' E 103°52'3 5.4
2018-Dec-28 19:53N 01°12' E 103°53'4 7.8
2018-Dec-28 19:23N 01°11' E 103°49'3 8.3
2018-Dec-28 18:59N 01°09' E 103°46'5 8.2
2018-Dec-28 18:24N 01°06' E 103°43'12 7.7
2018-Dec-28 16:48N 01°08' E 103°31'3 9.1
2018-Dec-28 16:30N 01°10' E 103°29'  
Track history (hours):
 
Tides and Currents Weather Stations Pressure Air Temp Water Temp Dewpoint Dewpoint Depression Visibility Wind Speed Wind Dir Waves Ship Positions

Star Clipper

Last reported at 2018-Dec-29 16:10 UTC. Time now 2019-Feb-16 03:00 UTC.
Position N 01°15' E 103°25'.
Warning: this ship's position is 48 days out of date.

Length 111 m; draft 5.9 m.

Type: Other ship. MMSI: 248786000.

Date/timePositionNaut miles runAvg speedWind from/ knotsBaromVisibWave heightAir tempDewpointWater temp
2018-Dec-29 16:10N 01°15' E 103°25'9 8.0
2018-Dec-29 15:04N 01°13' E 103°33'7 8.2
2018-Dec-29 14:16N 01°11' E 103°39'4 8.2
2018-Dec-29 13:46N 01°09' E 103°43'2 7.3
2018-Dec-29 13:28N 01°09' E 103°45'4 7.8
2018-Dec-29 12:58N 01°11' E 103°49'4 7.1
2018-Dec-29 12:22N 01°13' E 103°52'2 6.1
2018-Dec-29 11:58N 01°16' E 103°52'0 0.4
2018-Dec-29 11:28N 01°16' E 103°52'0 0.0
2018-Dec-29 10:58N 01°16' E 103°52'0 0.0
2018-Dec-29 10:04N 01°16' E 103°52'0 0.0
2018-Dec-29 09:52N 01°16' E 103°52'0 0.0
2018-Dec-29 09:28N 01°16' E 103°52'1 1.5
2018-Dec-29 08:58N 01°15' E 103°52'0 0.0
2018-Dec-29 08:28N 01°15' E 103°52'0 0.0
2018-Dec-29 07:58N 01°15' E 103°52'0 0.0
2018-Dec-29 07:28N 01°15' E 103°52'0 0.1
2018-Dec-29 06:58N 01°15' E 103°52'0 0.0
2018-Dec-29 06:28N 01°15' E 103°52'0 0.0
2018-Dec-29 05:59N 01°15' E 103°52'0 0.0
2018-Dec-29 05:29N 01°15' E 103°52'0 0.0
2018-Dec-29 04:59N 01°15' E 103°52'0 0.0
2018-Dec-29 04:29N 01°15' E 103°52'0 0.0
2018-Dec-29 03:53N 01°15' E 103°52'0 0.0
2018-Dec-29 03:29N 01°15' E 103°52'0 0.0
2018-Dec-29 02:29N 01°15' E 103°52'0 0.0
2018-Dec-29 01:42N 01°15' E 103°52'0 0.0
2018-Dec-29 01:23N 01°15' E 103°52'0 0.0
2018-Dec-29 00:47N 01°15' E 103°52'0 0.0
2018-Dec-29 00:29N 01°15' E 103°52'0 0.0
2018-Dec-28 23:59N 01°15' E 103°52'0 0.0
2018-Dec-28 23:29N 01°15' E 103°52'1 0.6
2018-Dec-28 22:11N 01°16' E 103°52'0 0.0
2018-Dec-28 21:53N 01°16' E 103°52'0 0.0
2018-Dec-28 21:23N 01°16' E 103°52'0 0.1
2018-Dec-28 20:35N 01°16' E 103°52'0 3.3
2018-Dec-28 20:29N 01°15' E 103°52'3 5.4
2018-Dec-28 19:53N 01°12' E 103°53'4 7.8
2018-Dec-28 19:23N 01°11' E 103°49'3 8.3
2018-Dec-28 18:59N 01°09' E 103°46'5 8.2
2018-Dec-28 18:24N 01°06' E 103°43'12 7.7
2018-Dec-28 16:48N 01°08' E 103°31'3 9.1
2018-Dec-28 16:30N 01°10' E 103°29'  

Dump ship's entire track history